KPAH/PAH METAR and TAF weather

Enter ICAO airport designator
Station Type Date Time Source
KPAH METAR 2023/02/04 02:53 UTC NOAA

KPAH 040253Z 00000KT 10SM CLR M05/M09 A3055 RMK AO2 SLP350 T10501094 58009


Station Type Date Time Source
KPAH Decoded METAR 2023/02/04 02:53 UTC NOAA

BARKLEY REGIONAL AIRPORT, KY, United States (KPAH) 37-03N 088-46W 118M
Feb 03, 2023 - 09:53 PM EST / 2023.02.04 0253 UTC
Wind: Calm:0
Visibility: 10 mile(s):0
Sky conditions: clear
Temperature: 23.0 F (-5.0 C)
Dew Point: 15.1 F (-9.4 C)
Relative Humidity: 71%
Pressure (altimeter): 30.55 in. Hg (1034 hPa)
Pressure tendency: 0.03 inches (0.9 hPa) lower than three hours ago
ob: KPAH 040253Z 00000KT 10SM CLR M05/M09 A3055 RMK AO2 SLP350 T10501094 58009
cycle: 3

Station Type Date Time Source
KPAH TAF 2023/02/03 18:22 UTC NOAA

TAF KPAH 031720Z 0318/0418 36007KT P6SM SKC
FM032200 VRB03KT P6SM SKC
FM040900 16005KT P6SM SKC
FM041400 20011KT P6SM FEW250

Example: see airport list